This is the latest recevied weather packets stored in our database for station/object KN6KS. If no packets are shown the sender has not sent any weather packets the latest 10 day(s).
| Time | Temp. | Humidity | Pressure | Rain* | Wind** | Luminosity | Snow |
|---|---|---|---|---|---|---|---|
| 1777998401 | 13.33° C | 59% | 1012.4 hPa | 0 mm | - | 366 W/m² | - |
| 1777998098 | 13.33° C | 59% | 1012 hPa | 0 mm | - | 597 W/m² | - |
| 1777997795 | 13.33° C | 60% | 1011.9 hPa | 0 mm | - | 607 W/m² | - |
| 1777997492 | 12.78° C | 60% | 1011.9 hPa | 0 mm | - | 599 W/m² | - |
| 1777997190 | 13.89° C | 59% | 1011.9 hPa | 0 mm | - | 587 W/m² | - |
| 1777996887 | 13.33° C | 60% | 1011.9 hPa | 0 mm | - | 547 W/m² | - |
| 1777996583 | 13.33° C | 60% | 1011.7 hPa | 0 mm | - | 521 W/m² | - |
| 1777996280 | 12.78° C | 62% | 1011.8 hPa | 0 mm | - | 481 W/m² | - |
| 1777995976 | 12.78° C | 62% | 1011.9 hPa | 0 mm | - | 429 W/m² | - |
| 1777995672 | 12.78° C | 61% | 1011.6 hPa | 0 mm | - | 407 W/m² | - |
| 1777995369 | 12.78° C | 62% | 1011.7 hPa | 0 mm | - | 384 W/m² | - |
| 1777995067 | 12.78° C | 62% | 1011.7 hPa | 0 mm | - | 375 W/m² | - |
| 1777994763 | 12.22° C | 64% | 1011.6 hPa | 0 mm | - | 337 W/m² | - |
| 1777994459 | 12.78° C | 62% | 1011.7 hPa | 0 mm | - | 303 W/m² | - |
| 1777994154 | 12.22° C | 64% | 1011.6 hPa | 0 mm | - | 254 W/m² | - |
| 1777993852 | 12.22° C | 63% | 1011.6 hPa | 0 mm | - | 275 W/m² | - |
| 1777993548 | 12.22° C | 63% | 1011.6 hPa | 0 mm | - | 145 W/m² | - |
| 1777993244 | 12.22° C | 64% | 1011.4 hPa | 0 mm | - | 236 W/m² | - |
| 1777992940 | 11.67° C | 65% | 1011.5 hPa | 0 mm | - | 198 W/m² | - |
| 1777992639 | 11.67° C | 66% | 1011.6 hPa | 0 mm | - | 182 W/m² | - |
| 1777992337 | 11.67° C | 66% | 1011.6 hPa | 0 mm | - | 160 W/m² | - |
| 1777992034 | 11.67° C | 67% | 1011.7 hPa | 0 mm | - | 153 W/m² | - |
| 1777991731 | 11.67° C | 67% | 1011.7 hPa | 0 mm | - | 138 W/m² | - |
| 1777991428 | 11.11° C | 68% | 1011.7 hPa | 0 mm | - | 131 W/m² | - |
| 1777991125 | 11.11° C | 69% | 1011.8 hPa | 0 mm | - | 83 W/m² | - |
* Rain latest hour (hover to see other rain measurements)
** Current wind speed in m/s (hover to see current wind gust speed)